Time;durP1;ratioP1;P1;durP2;ratioP2;P2;SDS_P1;SDS_P2;PMS_P1;PMS_P2;Temp;Humidity;BMP_temperature;BMP_pressure;BME280_temperature;BME280_humidity;BME280_pressure;Samples;Min_cycle;Max_cycle;Signal;HPM_P1;HPM_P2
2021/12/15 00:02:09;;;;;;;58.30;19.92;;;;;;;6.02;100.00;101640.89;3537341;79;98994;-90
2021/12/15 00:07:07;;;;;;;44.03;18.67;;;;;;;6.03;100.00;101628.02;3531502;81;99088;-90
2021/12/15 00:12:13;;;;;;;65.97;21.70;;;;;;;6.06;100.00;101641.05;3520439;81;98807;-91
2021/12/15 00:17:16;;;;;;;45.95;18.75;;;;;;;6.05;100.00;101638.08;3526435;81;99682;-90
2021/12/15 00:22:17;;;;;;;55.87;17.80;;;;;;;6.04;100.00;101636.45;3529586;81;99080;-90
2021/12/15 00:27:18;;;;;;;55.93;18.23;;;;;;;6.06;100.00;101650.62;3545267;80;99095;-91
2021/12/15 00:32:19;;;;;;;64.53;17.57;;;;;;;6.04;100.00;101639.17;3536796;81;99130;-90
2021/12/15 00:37:21;;;;;;;54.87;16.73;;;;;;;6.03;100.00;101638.39;3528845;81;98999;-90
2021/12/15 00:42:22;;;;;;;42.07;16.00;;;;;;;6.03;100.00;101634.84;3511690;81;99359;-91
2021/12/15 00:47:23;;;;;;;49.33;15.20;;;;;;;6.03;100.00;101637.02;3520244;81;98858;-91
2021/12/15 00:52:24;;;;;;;56.57;15.47;;;;;;;6.06;100.00;101640.48;3528926;81;98956;-91
2021/12/15 00:57:25;;;;;;;41.80;14.37;;;;;;;6.07;100.00;101646.76;3536641;81;99444;-88
2021/12/15 01:02:27;;;;;;;50.17;16.90;;;;;;;6.06;100.00;101636.95;3471230;82;99332;-89
2021/12/15 01:07:29;;;;;;;58.03;16.73;;;;;;;6.08;100.00;101638.80;3468536;81;99518;-88
2021/12/15 01:23:16;;;;;;;67.53;18.40;;;;;;;6.11;100.00;101639.55;3529923;81;98892;-88
2021/12/15 01:28:18;;;;;;;40.50;14.67;;;;;;;6.12;100.00;101640.56;3525191;81;99142;-88
2021/12/15 01:33:19;;;;;;;60.90;17.37;;;;;;;6.11;100.00;101650.47;3531822;82;99031;-88
2021/12/15 01:38:24;;;;;;;56.63;16.33;;;;;;;6.11;100.00;101662.19;3513581;80;99395;-88
2021/12/15 01:43:49;;;;;;;69.17;17.63;;;;;;;6.10;100.00;101662.50;3526791;82;99549;-88
2021/12/15 01:48:36;;;;;;;51.97;15.27;;;;;;;6.11;100.00;101666.30;3518722;82;98622;-88
2021/12/15 01:53:38;;;;;;;41.80;14.27;;;;;;;6.09;100.00;101668.55;3512276;82;98820;-88
2021/12/15 01:58:39;;;;;;;45.80;14.93;;;;;;;6.11;100.00;101675.08;3462860;82;99239;-88
2021/12/15 02:03:41;;;;;;;63.83;17.43;;;;;;;6.11;100.00;101667.66;3502095;82;99882;-88
2021/12/15 02:08:43;;;;;;;59.77;16.50;;;;;;;6.13;100.00;101665.44;3480345;82;99406;-88
2021/12/15 02:13:45;;;;;;;65.57;17.70;;;;;;;6.11;100.00;101658.67;3413152;83;99517;-88
2021/12/15 02:18:46;;;;;;;51.23;15.15;;;;;;;6.12;100.00;101670.63;3492311;82;99012;-88
2021/12/15 02:23:54;;;;;;;59.83;17.13;;;;;;;6.13;100.00;101672.82;3471919;83;98904;-88
2021/12/15 02:28:58;;;;;;;51.68;15.75;;;;;;;6.17;100.00;101682.79;3438841;83;99285;-88
2021/12/15 02:39:21;;;;;;;48.75;17.17;;;;;;;6.17;100.00;101683.38;3509335;80;99315;-88
2021/12/15 02:44:25;;;;;;;102.37;20.07;;;;;;;6.15;100.00;101696.53;3542783;80;99398;-88
2021/12/15 02:49:28;;;;;;;86.35;18.35;;;;;;;6.14;100.00;101698.48;3526239;81;99836;-88
2021/12/15 02:54:29;;;;;;;56.93;15.87;;;;;;;6.14;100.00;101694.92;3525722;82;26114;-88
2021/12/15 02:59:39;;;;;;;70.37;17.03;;;;;;;6.13;100.00;101683.20;3522231;81;99142;-88
2021/12/15 03:04:42;;;;;;;87.57;18.53;;;;;;;6.14;100.00;101686.72;3534110;79;99163;-88
2021/12/15 03:20:10;;;;;;;41.60;14.77;;;;;;;6.16;100.00;101684.50;3499994;81;99329;-88
2021/12/15 03:25:11;;;;;;;76.23;17.63;;;;;;;6.18;100.00;101696.73;3517997;82;99286;-88
2021/12/15 03:35:48;;;;;;;53.43;17.33;;;;;;;6.14;100.00;101705.31;3521719;81;98928;-89
2021/12/15 03:40:42;;;;;;;40.52;12.73;;;;;;;6.13;100.00;101706.44;3511924;80;98929;-89
2021/12/15 03:45:50;;;;;;;56.90;18.03;;;;;;;6.11;100.00;101708.66;3543397;81;99458;-89
2021/12/15 03:50:54;;;;;;;50.78;17.42;;;;;;;6.13;100.00;101716.00;3519127;81;99027;-89
2021/12/15 03:55:56;;;;;;;49.33;17.47;;;;;;;6.15;100.00;101712.38;3525324;79;99475;-89
2021/12/15 04:01:06;;;;;;;47.13;18.77;;;;;;;6.18;100.00;101717.78;3540493;81;98954;-88
2021/12/15 04:06:11;;;;;;;49.87;16.87;;;;;;;6.19;100.00;101715.28;3529269;81;98630;-89
2021/12/15 04:11:16;;;;;;;51.10;18.33;;;;;;;6.20;100.00;101713.61;3501188;82;98955;-89
2021/12/15 04:21:34;;;;;;;48.27;17.63;;;;;;;6.19;100.00;101706.53;3457786;81;99115;-88
2021/12/15 04:26:35;;;;;;;62.00;21.30;;;;;;;6.21;100.00;101712.48;3436647;83;99080;-89
2021/12/15 04:31:42;;;;;;;56.60;19.10;;;;;;;6.23;100.00;101702.59;3504556;81;99046;-87
2021/12/15 04:36:47;;;;;;;51.33;18.27;;;;;;;6.21;100.00;101702.13;3514808;81;26379;-88
2021/12/15 04:41:51;;;;;;;46.60;15.27;;;;;;;6.23;100.00;101720.38;3532157;81;99006;-88
2021/12/15 04:47:05;;;;;;;68.60;21.20;;;;;;;6.22;100.00;101715.45;3539345;81;99293;-88
2021/12/15 04:52:09;;;;;;;58.90;20.27;;;;;;;6.23;100.00;101717.64;3420283;83;99485;-89
2021/12/15 04:57:11;;;;;;;47.63;17.60;;;;;;;6.21;100.00;101711.11;3421027;84;99141;-89
2021/12/15 05:02:14;;;;;;;60.83;19.10;;;;;;;6.20;100.00;101719.62;3477535;82;99108;-90
2021/12/15 05:07:17;;;;;;;68.23;20.07;;;;;;;6.21;100.00;101727.52;3445170;82;99450;-90
2021/12/15 05:12:20;;;;;;;47.00;17.83;;;;;;;6.21;100.00;101727.52;3518710;81;99142;-90
2021/12/15 05:17:21;;;;;;;60.57;18.03;;;;;;;6.20;100.00;101732.74;3527903;82;98879;-91
2021/12/15 05:22:22;;;;;;;62.63;18.17;;;;;;;6.19;100.00;101733.05;3530763;81;99354;-89
2021/12/15 05:27:24;;;;;;;81.17;19.70;;;;;;;6.17;100.00;101727.89;3537529;82;99001;-90
2021/12/15 05:32:25;;;;;;;63.63;18.33;;;;;;;6.16;100.00;101735.86;3525708;79;99114;-89
2021/12/15 05:37:28;;;;;;;67.83;18.97;;;;;;;6.15;100.00;101734.80;3526245;81;99463;-91
2021/12/15 05:42:29;;;;;;;56.03;18.50;;;;;;;6.15;100.00;101727.96;3524779;81;98816;-89
2021/12/15 05:47:30;;;;;;;69.93;20.27;;;;;;;6.16;100.00;101711.83;3535069;81;99177;-90
2021/12/15 05:52:31;;;;;;;62.40;18.67;;;;;;;6.16;100.00;101722.19;3536212;80;99256;-90
2021/12/15 05:57:33;;;;;;;67.00;19.77;;;;;;;6.19;100.00;101733.05;3513278;82;99468;-90
2021/12/15 06:02:35;;;;;;;85.60;19.77;;;;;;;6.18;100.00;101744.56;3511203;80;99489;-91
2021/12/15 06:07:40;;;;;;;83.03;26.20;;;;;;;6.14;100.00;101751.77;3529141;80;98987;-90
2021/12/15 06:12:43;;;;;;;81.37;27.67;;;;;;;6.14;100.00;101752.33;3495239;80;98480;-91
2021/12/15 06:17:44;;;;;;;88.40;26.00;;;;;;;6.13;100.00;101753.45;3530894;80;99349;-92
2021/12/15 06:22:47;;;;;;;68.67;21.47;;;;;;;6.11;100.00;101744.19;3495344;81;98997;-92
2021/12/15 06:27:48;;;;;;;66.60;21.80;;;;;;;6.10;100.00;101745.31;3529195;80;99451;-91
2021/12/15 06:32:49;;;;;;;63.47;19.37;;;;;;;6.09;100.00;101747.81;3532177;81;99370;-93
2021/12/15 06:37:50;;;;;;;62.77;19.70;;;;;;;6.07;100.00;101733.66;3504052;82;107221;-91
2021/12/15 06:42:51;;;;;;;57.77;21.20;;;;;;;6.08;100.00;101740.73;3547415;81;33750;-92
2021/12/15 06:58:49;;;;;;;65.97;24.82;;;;;;;6.12;100.00;101757.31;3516931;82;99281;-92
2021/12/15 07:03:50;;;;;;;69.27;24.90;;;;;;;6.13;100.00;101757.00;3536059;82;99090;-93
2021/12/15 07:08:51;;;;;;;68.60;24.57;;;;;;;6.14;100.00;101756.42;3509317;81;99310;-91
2021/12/15 07:13:52;;;;;;;69.00;23.03;;;;;;;6.17;100.00;101764.80;3525131;80;98721;-91
2021/12/15 07:19:06;;;;;;;72.07;27.37;;;;;;;6.19;100.00;101763.94;3527601;81;99297;-89
2021/12/15 07:23:56;;;;;;;65.90;25.10;;;;;;;6.20;100.00;101775.66;3522388;81;99013;-95
2021/12/15 07:28:57;;;;;;;62.40;24.07;;;;;;;6.20;100.00;101777.03;3528504;81;99328;-93
2021/12/15 07:33:59;;;;;;;71.07;26.67;;;;;;;6.25;100.00;101783.73;3533763;81;99125;-96
2021/12/15 07:39:00;;;;;;;67.93;26.10;;;;;;;6.27;100.00;101787.76;3537434;81;99419;-91
2021/12/15 07:44:02;;;;;;;66.47;25.03;;;;;;;6.28;100.00;101796.20;3543965;81;99104;-93
2021/12/15 07:49:03;;;;;;;68.20;29.63;;;;;;;6.31;100.00;101794.22;3518125;81;99211;-92
2021/12/15 07:54:04;;;;;;;68.63;28.10;;;;;;;6.35;100.00;101799.86;3549813;80;98774;-93
2021/12/15 07:59:05;;;;;;;77.33;27.17;;;;;;;6.37;100.00;101797.60;3478742;82;99168;-93
2021/12/15 08:04:11;;;;;;;71.07;26.93;;;;;;;6.38;100.00;101795.14;3543467;80;99437;-95
2021/12/15 08:09:14;;;;;;;73.00;28.92;;;;;;;6.42;100.00;101800.20;3529259;81;99394;-93
2021/12/15 08:14:15;;;;;;;73.50;27.30;;;;;;;6.44;100.00;101784.30;3545233;80;99042;-96
2021/12/15 08:19:19;;;;;;;78.13;27.37;;;;;;;6.46;100.00;101792.98;3530108;79;99024;-94
2021/12/15 08:24:20;;;;;;;81.77;26.63;;;;;;;6.47;100.00;101782.28;3533163;81;25924;-93
2021/12/15 08:29:22;;;;;;;78.70;26.93;;;;;;;6.47;100.00;101783.10;3462563;81;98671;-96
2021/12/15 08:34:23;;;;;;;85.30;28.90;;;;;;;6.48;100.00;101781.97;3352316;84;98534;-91
2021/12/15 08:39:24;;;;;;;83.60;28.23;;;;;;;6.50;100.00;101783.82;3454040;83;99425;-96
2021/12/15 08:44:25;;;;;;;76.27;25.33;;;;;;;6.54;100.00;101784.02;3471974;83;99133;-93
2021/12/15 08:49:38;;;;;;;83.15;26.90;;;;;;;6.54;100.00;101788.12;3436886;82;98285;31
2021/12/15 08:54:43;;;;;;;73.83;26.90;;;;;;;6.56;100.00;101788.59;3390849;84;25913;-96
2021/12/15 08:59:44;;;;;;;80.32;27.82;;;;;;;6.58;100.00;101804.94;3397224;83;99001;-94
2021/12/15 09:09:55;;;;;;;74.97;25.83;;;;;;;6.62;100.00;101825.08;3422559;81;99321;-94
2021/12/15 09:14:56;;;;;;;78.80;25.70;;;;;;;6.64;100.00;101831.57;3408800;84;99102;-96
2021/12/15 09:20:06;;;;;;;73.77;26.23;;;;;;;6.66;100.00;101822.51;3378862;84;99221;-95
2021/12/15 09:25:10;;;;;;;89.30;26.87;;;;;;;6.68;100.00;101816.15;3348436;86;33803;-96
2021/12/15 09:30:16;;;;;;;88.07;27.40;;;;;;;6.71;100.00;101806.73;3339661;84;99285;-96
2021/12/15 09:35:21;;;;;;;85.95;28.35;;;;;;;6.74;100.00;101782.05;3467586;83;99129;-93
2021/12/15 09:40:23;;;;;;;88.33;28.63;;;;;;;6.74;100.00;101763.70;3459379;82;99991;-91
2021/12/15 09:45:38;;;;;;;82.53;29.43;;;;;;;6.80;100.00;101772.55;3420510;83;99120;-96
2021/12/15 10:06:48;;;;;;;81.33;27.83;;;;;;;7.00;100.00;101754.16;3376530;83;99213;-94
2021/12/15 10:22:27;;;;;;;66.92;23.10;;;;;;;7.15;100.00;101738.05;3368214;85;98949;-96
2021/12/15 10:27:57;;;;;;;61.37;22.87;;;;;;;7.20;100.00;101734.37;3345969;86;98282;-94
2021/12/15 10:33:09;;;;;;;64.03;22.25;;;;;;;7.27;100.00;101747.00;3361356;85;99108;-91
2021/12/15 10:38:29;;;;;;;77.73;27.47;;;;;;;7.31;100.00;101752.88;3343666;86;98274;-93
2021/12/15 10:43:47;;;;;;;63.67;23.33;;;;;;;7.40;100.00;101750.94;3379438;85;97888;-96
2021/12/15 10:48:56;;;;;;;61.47;23.87;;;;;;;7.47;100.00;101743.61;3350594;85;98974;-94
2021/12/15 10:54:14;;;;;;;61.23;22.70;;;;;;;7.53;100.00;101749.16;3350035;85;98904;-92
2021/12/15 10:59:17;;;;;;;61.27;23.40;;;;;;;7.56;100.00;101747.94;3342936;85;99172;-95
2021/12/15 11:04:49;;;;;;;56.23;22.00;;;;;;;7.57;100.00;101745.44;3356899;85;99493;-92
2021/12/15 11:10:13;;;;;;;65.30;23.30;;;;;;;7.60;100.00;101743.43;3356434;85;99319;-91
2021/12/15 11:15:22;;;;;;;56.25;23.25;;;;;;;7.63;100.00;101748.24;3364620;85;99124;-91
2021/12/15 11:20:32;;;;;;;51.28;21.57;;;;;;;7.65;100.00;101747.38;3362912;85;98709;-96
2021/12/15 11:25:44;;;;;;;56.53;21.97;;;;;;;7.67;100.00;101742.36;3367940;84;98812;-95
2021/12/15 11:30:56;;;;;;;56.43;23.07;;;;;;;7.69;100.00;101748.89;3290525;85;98108;-94
2021/12/15 11:36:06;;;;;;;57.40;23.97;;;;;;;7.72;100.00;101737.27;3351646;85;99500;-95
2021/12/15 11:41:20;;;;;;;54.47;22.57;;;;;;;7.75;100.00;101733.88;3327304;85;99137;-93
2021/12/15 11:46:51;;;;;;;52.67;22.27;;;;;;;7.79;100.00;101733.48;3337623;85;100117;-92
2021/12/15 11:51:59;;;;;;;53.48;21.75;;;;;;;7.83;100.00;101735.78;3340837;86;99289;-93
2021/12/15 11:57:18;;;;;;;60.70;23.57;;;;;;;7.87;100.00;101730.71;3304074;87;25947;-93
2021/12/15 12:02:35;;;;;;;57.40;25.23;;;;;;;7.93;100.00;101726.66;3300011;86;98627;-95
2021/12/15 12:07:47;;;;;;;55.03;22.70;;;;;;;7.99;100.00;101728.64;3349563;86;98986;-95
2021/12/15 12:13:02;;;;;;;55.17;22.53;;;;;;;8.06;100.00;101737.16;3345081;86;98977;-95
2021/12/15 12:18:05;;;;;;;57.40;23.57;;;;;;;8.11;100.00;101734.23;3338379;85;108478;-92
2021/12/15 12:23:09;;;;;;;50.23;21.13;;;;;;;8.13;100.00;101739.63;3359187;85;98486;-96
2021/12/15 12:28:18;;;;;;;48.33;21.53;;;;;;;8.12;100.00;101740.77;3331169;86;99335;-94
2021/12/15 12:33:57;;;;;;;;;;;;;;;;;;;;;
2021/12/15 12:38:42;;;;;;;47.17;21.30;;;;;;;8.13;100.00;101749.81;3294308;86;99086;-95
2021/12/15 12:43:48;;;;;;;45.17;19.48;;;;;;;8.14;100.00;101752.78;3290612;86;98082;-95
2021/12/15 12:49:34;;;;;;;44.13;20.72;;;;;;;8.14;100.00;101745.93;3311944;86;99106;-90
2021/12/15 12:59:50;;;;;;;43.15;20.62;;;;;;;8.07;100.00;101747.02;3305500;86;99157;-93
2021/12/15 13:04:52;;;;;;;46.53;19.20;;;;;;;8.06;100.00;101754.97;3322557;85;99507;-94
2021/12/15 13:09:59;;;;;;;39.30;17.93;;;;;;;8.03;100.00;101752.91;3308528;85;98826;-96
2021/12/15 13:15:05;;;;;;;46.00;19.17;;;;;;;8.00;100.00;101761.77;3335368;86;98892;-96
2021/12/15 13:20:23;;;;;;;48.28;20.95;;;;;;;7.98;100.00;101747.05;3263063;86;99418;-96
2021/12/15 13:30:57;;;;;;;39.53;18.90;;;;;;;7.98;100.00;101757.19;3299904;86;99230;-94
2021/12/15 13:36:40;;;;;;;49.23;21.03;;;;;;;7.97;100.00;101765.19;3297491;86;99172;-93
2021/12/15 13:42:03;;;;;;;50.28;22.42;;;;;;;7.94;100.00;101763.08;3305604;86;99372;-94
2021/12/15 13:47:24;;;;;;;50.27;22.87;;;;;;;7.94;100.00;101763.90;3312407;85;99185;-95
2021/12/15 13:52:43;;;;;;;44.67;19.47;;;;;;;7.95;100.00;101771.54;3352300;86;99095;-96
2021/12/15 13:57:53;;;;;;;51.83;21.90;;;;;;;7.91;100.00;101767.28;3313816;85;98968;-93
2021/12/15 14:03:18;;;;;;;47.27;20.33;;;;;;;7.81;100.00;101762.72;3331226;85;98160;-91
2021/12/15 14:08:31;;;;;;;44.23;20.23;;;;;;;7.89;100.00;101779.70;3314248;86;99172;-92
2021/12/15 14:13:46;;;;;;;51.93;21.63;;;;;;;7.90;100.00;101776.64;3304277;87;99469;-93
2021/12/15 14:18:47;;;;;;;52.57;21.93;;;;;;;7.90;100.00;101775.86;3317187;84;99441;-94
2021/12/15 14:23:51;;;;;;;55.30;24.00;;;;;;;7.89;100.00;101786.00;3336651;85;99407;-95
2021/12/15 14:28:56;;;;;;;53.60;22.10;;;;;;;7.86;100.00;101775.67;3324357;86;99101;-92
2021/12/15 14:34:05;;;;;;;58.23;24.77;;;;;;;7.84;100.00;101779.31;3343278;85;26023;-90
2021/12/15 14:39:17;;;;;;;56.60;25.20;;;;;;;7.86;100.00;101785.85;3328536;86;99207;-92
2021/12/15 14:44:32;;;;;;;59.98;23.67;;;;;;;7.85;100.00;101781.50;3333930;86;98852;-92
2021/12/15 14:49:39;;;;;;;48.63;21.33;;;;;;;7.84;100.00;101780.69;3352251;86;99360;-92
2021/12/15 14:54:45;;;;;;;52.33;23.67;;;;;;;7.83;100.00;101785.94;3352270;85;99451;-93
2021/12/15 14:59:51;;;;;;;54.43;23.23;;;;;;;7.81;100.00;101788.17;3341295;85;99115;-91
2021/12/15 15:05:09;;;;;;;58.15;23.70;;;;;;;7.79;100.00;101778.12;3360208;84;99363;-93
2021/12/15 15:10:18;;;;;;;60.10;23.17;;;;;;;7.79;100.00;101780.07;3378590;85;99172;-93
2021/12/15 15:15:28;;;;;;;58.73;24.27;;;;;;;7.79;100.00;101767.73;3326304;86;98853;-95
2021/12/15 15:20:36;;;;;;;63.63;26.57;;;;;;;7.78;100.00;101768.29;3310642;86;99251;-94
2021/12/15 15:25:42;;;;;;;59.57;23.60;;;;;;;7.77;100.00;101763.95;3333531;86;99056;-92
2021/12/15 15:30:46;;;;;;;57.60;24.23;;;;;;;7.77;100.00;101775.45;3287817;86;99113;-90
2021/12/15 15:35:58;;;;;;;63.17;25.10;;;;;;;7.76;100.00;101775.23;3304247;87;99391;-91
2021/12/15 15:41:04;;;;;;;67.53;24.83;;;;;;;7.75;100.00;101773.03;3334679;86;99039;-90
2021/12/15 15:46:13;;;;;;;64.50;25.10;;;;;;;7.76;100.00;101774.67;3321188;85;26253;-90
2021/12/15 15:51:29;;;;;;;54.05;24.23;;;;;;;7.76;100.00;101771.93;3324265;85;98937;-87
2021/12/15 15:56:35;;;;;;;61.90;25.00;;;;;;;7.75;100.00;101771.67;3342752;85;99294;-90
2021/12/15 16:01:40;;;;;;;58.97;25.30;;;;;;;7.73;100.00;101773.94;3333992;86;99106;-92
2021/12/15 16:06:45;;;;;;;52.47;21.50;;;;;;;7.73;100.00;101782.71;3343695;85;98795;-90
2021/12/15 16:11:52;;;;;;;53.47;23.43;;;;;;;7.73;100.00;101782.71;3337765;85;99578;-91
2021/12/15 16:17:06;;;;;;;46.27;20.47;;;;;;;7.72;100.00;101781.11;3320911;84;99550;-90
2021/12/15 16:27:47;;;;;;;52.90;22.57;;;;;;;7.72;100.00;101795.63;3341941;86;98807;-91
2021/12/15 16:32:50;;;;;;;51.47;22.20;;;;;;;7.72;100.00;101804.40;3349754;86;98899;-88
2021/12/15 16:37:55;;;;;;;50.50;21.00;;;;;;;7.70;100.00;101795.13;3331981;86;99519;-89
2021/12/15 16:43:10;;;;;;;46.63;21.77;;;;;;;7.72;100.00;101798.37;3333583;86;99486;-91
2021/12/15 16:48:32;;;;;;;46.27;21.57;;;;;;;7.74;100.00;101810.38;3297751;86;99495;-89
2021/12/15 16:53:41;;;;;;;45.92;21.55;;;;;;;7.75;100.00;101816.09;3330313;85;99477;-91
2021/12/15 16:58:46;;;;;;;45.67;20.87;;;;;;;7.75;100.00;101818.25;3328519;86;99467;-90
2021/12/15 17:03:48;;;;;;;50.77;21.40;;;;;;;7.75;100.00;101816.89;3322576;86;97816;-91
2021/12/15 17:08:50;;;;;;;44.07;21.70;;;;;;;7.75;100.00;101806.51;3348291;85;99013;-90
2021/12/15 17:13:52;;;;;;;45.92;22.07;;;;;;;7.75;100.00;101806.51;3347401;82;98261;-89
2021/12/15 17:18:54;;;;;;;44.67;22.30;;;;;;;7.77;100.00;101805.61;3339436;86;98754;-89
2021/12/15 17:24:00;;;;;;;46.70;21.77;;;;;;;7.78;100.00;101798.98;3354494;86;99464;-91
2021/12/15 17:29:06;;;;;;;40.10;20.50;;;;;;;7.77;100.00;101799.58;3361103;85;99375;-90
2021/12/15 17:34:12;;;;;;;42.23;22.15;;;;;;;7.77;100.00;101804.23;3342886;85;26241;-90
2021/12/15 17:39:27;;;;;;;49.10;23.05;;;;;;;7.78;100.00;101808.58;3304099;87;99382;-90
2021/12/15 17:44:33;;;;;;;39.13;20.00;;;;;;;7.77;100.00;101806.42;3331268;85;98133;-91
2021/12/15 17:49:42;;;;;;;42.27;19.90;;;;;;;7.78;100.00;101798.44;3342854;85;98727;-91
2021/12/15 17:54:51;;;;;;;42.77;20.53;;;;;;;7.76;100.00;101805.38;3325687;86;99488;-90
2021/12/15 17:59:53;;;;;;;42.30;18.97;;;;;;;7.75;100.00;101805.92;3353973;85;99056;-88
2021/12/15 18:04:54;;;;;;;41.40;21.03;;;;;;;7.75;100.00;101807.88;3351984;85;99719;-90
2021/12/15 18:09:55;;;;;;;40.63;20.27;;;;;;;7.73;100.00;101791.75;3347006;86;98896;-91
2021/12/15 18:14:58;;;;;;;52.60;22.37;;;;;;;7.74;100.00;101800.80;3347433;85;98839;-89
2021/12/15 18:19:59;;;;;;;44.47;20.67;;;;;;;7.73;100.00;101815.05;3381880;84;99545;-96
2021/12/15 18:25:00;;;;;;;47.97;22.23;;;;;;;7.74;100.00;101814.50;3368313;85;98275;-89
2021/12/15 18:30:03;;;;;;;46.90;20.37;;;;;;;7.74;100.00;101819.98;3316292;86;99681;-89
2021/12/15 18:35:05;;;;;;;48.13;21.40;;;;;;;7.72;100.00;101813.44;3333183;85;99513;-90
2021/12/15 18:40:09;;;;;;;51.57;22.67;;;;;;;7.72;100.00;101817.55;3324959;85;99512;-90
2021/12/15 18:45:11;;;;;;;49.67;20.60;;;;;;;7.73;100.00;101816.97;3349982;85;99416;-92
2021/12/15 18:50:15;;;;;;;54.07;22.47;;;;;;;7.74;100.00;101818.02;3355399;85;99130;-88
2021/12/15 18:55:22;;;;;;;49.13;21.57;;;;;;;7.74;100.00;101816.66;3353563;86;98257;-88
2021/12/15 19:00:28;;;;;;;48.68;20.50;;;;;;;7.75;100.00;101814.73;3338548;86;99339;-90
2021/12/15 19:05:29;;;;;;;48.45;21.02;;;;;;;7.74;100.00;101818.02;3327630;86;98239;-89
2021/12/15 19:10:35;;;;;;;46.67;20.00;;;;;;;7.75;100.00;101827.06;3331092;86;99366;-88
2021/12/15 19:15:41;;;;;;;48.50;20.87;;;;;;;7.75;100.00;101813.36;3307034;86;98078;-90
2021/12/15 19:20:49;;;;;;;50.53;21.80;;;;;;;7.75;100.00;101811.41;3390533;83;99268;-89
2021/12/15 19:25:50;;;;;;;50.20;22.47;;;;;;;7.76;100.00;101813.59;3342310;85;99442;-87
2021/12/15 19:30:54;;;;;;;45.90;20.10;;;;;;;7.78;100.00;101812.69;3334858;86;99111;-89
2021/12/15 19:35:56;;;;;;;55.17;22.23;;;;;;;7.78;100.00;101806.66;3351340;85;99034;-89
2021/12/15 19:40:58;;;;;;;50.58;22.25;;;;;;;7.80;100.00;101815.94;3357255;85;99067;-89
2021/12/15 19:46:02;;;;;;;49.27;22.37;;;;;;;7.80;100.00;101809.87;3351029;85;26571;-89
2021/12/15 19:51:04;;;;;;;55.97;23.93;;;;;;;7.81;100.00;101804.62;3307367;86;98941;-91
2021/12/15 19:56:09;;;;;;;56.93;24.50;;;;;;;7.82;100.00;101814.48;3358027;85;98273;-91
2021/12/15 20:01:16;;;;;;;56.00;24.07;;;;;;;7.82;100.00;101810.38;3366564;85;99183;-90
2021/12/15 20:06:20;;;;;;;57.35;25.92;;;;;;;7.82;100.00;101819.96;3380954;85;99473;-88
2021/12/15 20:11:29;;;;;;;56.57;24.57;;;;;;;7.85;100.00;101814.40;3352548;85;99506;-89
2021/12/15 20:16:38;;;;;;;53.73;24.03;;;;;;;7.86;100.00;101814.63;3328666;85;33441;-91
2021/12/15 20:21:43;;;;;;;54.40;25.60;;;;;;;7.87;100.00;101818.98;3333943;85;99312;-92
2021/12/15 20:26:46;;;;;;;55.25;24.70;;;;;;;7.88;100.00;101820.58;3355606;85;98900;-90
2021/12/15 20:31:50;;;;;;;52.30;23.00;;;;;;;7.90;100.00;101818.34;3357592;85;99176;-89
2021/12/15 20:36:55;;;;;;;48.30;23.17;;;;;;;7.89;100.00;101817.52;3367876;85;99037;-90
2021/12/15 20:41:58;;;;;;;56.73;23.87;;;;;;;7.91;100.00;101826.80;3352845;84;98922;-89
2021/12/15 20:47:03;;;;;;;47.63;24.30;;;;;;;7.91;100.00;101826.22;3352469;85;99332;-89
2021/12/15 20:52:05;;;;;;;47.33;22.73;;;;;;;7.91;100.00;101829.54;3356966;85;98600;-89
2021/12/15 20:57:09;;;;;;;47.53;22.83;;;;;;;7.91;100.00;101824.84;3383355;83;98541;-88
2021/12/15 21:02:14;;;;;;;47.47;22.93;;;;;;;7.91;100.00;101824.06;3354903;85;99511;-92
2021/12/15 21:07:15;;;;;;;42.53;22.00;;;;;;;7.92;100.00;101831.94;3385990;85;98273;-90
2021/12/15 21:12:20;;;;;;;45.50;23.27;;;;;;;7.92;100.00;101833.30;3357513;84;98762;-90
2021/12/15 21:17:22;;;;;;;46.43;23.47;;;;;;;7.93;100.00;101824.53;3365580;85;99109;-92
2021/12/15 21:22:31;;;;;;;47.53;23.62;;;;;;;7.95;100.00;101814.03;3367509;85;98790;-91
2021/12/15 21:27:33;;;;;;;47.67;24.70;;;;;;;7.95;100.00;101809.92;3376952;84;99262;-90
2021/12/15 21:32:35;;;;;;;45.12;23.20;;;;;;;7.97;100.00;101815.31;3363503;85;99603;-90
2021/12/15 21:37:38;;;;;;;47.50;24.13;;;;;;;7.97;100.00;101806.30;3374186;84;98544;-90
2021/12/15 21:42:40;;;;;;;44.00;24.43;;;;;;;7.98;100.00;101818.88;3385619;85;98284;-89
2021/12/15 21:47:41;;;;;;;45.20;23.07;;;;;;;7.99;100.00;101819.11;3388283;85;98754;-90
2021/12/15 21:52:42;;;;;;;45.43;23.00;;;;;;;7.99;100.00;101812.26;3282755;86;98137;-91
2021/12/15 21:57:45;;;;;;;48.80;24.47;;;;;;;7.98;100.00;101810.66;3348339;86;98034;-91
2021/12/15 22:02:47;;;;;;;42.43;23.02;;;;;;;7.96;100.00;101806.86;3344768;85;99081;-91
2021/12/15 22:07:49;;;;;;;42.13;22.77;;;;;;;7.98;100.00;101809.28;3349570;86;99172;-91
2021/12/15 22:12:51;;;;;;;42.38;21.95;;;;;;;7.97;100.00;101813.95;3348187;85;99168;-91
2021/12/15 22:17:54;;;;;;;44.87;24.27;;;;;;;7.96;100.00;101804.12;3357756;85;99198;-89
2021/12/15 22:22:56;;;;;;;46.83;24.53;;;;;;;7.99;100.00;101799.36;3320263;86;99729;-91
2021/12/15 22:27:58;;;;;;;36.97;21.77;;;;;;;7.95;100.00;101798.40;3333997;86;104467;-91
2021/12/15 22:33:03;;;;;;;45.87;24.27;;;;;;;7.98;100.00;101805.98;3357389;86;98288;-92
2021/12/15 22:38:07;;;;;;;43.27;22.27;;;;;;;7.99;100.00;101802.66;3306811;86;99144;-93
2021/12/15 22:43:08;;;;;;;44.43;23.60;;;;;;;7.99;100.00;101790.33;3325356;86;99484;-92
2021/12/15 22:48:09;;;;;;;41.63;22.85;;;;;;;7.98;100.00;101785.98;3340484;85;99079;-88
2021/12/15 22:53:10;;;;;;;40.97;22.33;;;;;;;7.97;100.00;101778.89;3375936;85;98233;-88
2021/12/15 22:58:11;;;;;;;41.60;24.67;;;;;;;7.95;100.00;101770.17;3299921;86;99017;-87
2021/12/15 23:03:15;;;;;;;40.17;22.10;;;;;;;7.94;100.00;101772.67;3330986;86;98840;-87
2021/12/15 23:08:19;;;;;;;41.53;22.17;;;;;;;7.93;100.00;101766.41;3332289;84;99076;-88
2021/12/15 23:13:25;;;;;;;38.20;22.10;;;;;;;7.94;100.00;101768.56;3308040;86;99183;-88
2021/12/15 23:18:26;;;;;;;37.70;19.93;;;;;;;7.93;100.00;101761.48;3337114;85;99266;-87
2021/12/15 23:23:31;;;;;;;38.90;21.43;;;;;;;7.93;100.00;101762.84;3361673;85;99120;-87
2021/12/15 23:28:38;;;;;;;33.38;19.90;;;;;;;7.91;100.00;101763.75;3364880;85;99043;-87
2021/12/15 23:33:39;;;;;;;;;;;;;;;7.89;100.00;101757.22;3357317;86;98115;-87
2021/12/15 23:55:09;;;;;;;36.13;19.63;;;;;;;7.82;100.00;101762.41;3373259;85;99421;-87
